Time;durP1;ratioP1;P1;durP2;ratioP2;P2;SDS_P1;SDS_P2;PMS_P1;PMS_P2;Temp;Humidity;BMP_temperature;BMP_pressure;BME280_temperature;BME280_humidity;BME280_pressure;Samples;Min_cycle;Max_cycle;Signal;HPM_P1;HPM_P2
2023/09/28 00:05:32;;;;;;;;;;;18.00;99.90;;;;;;12532587;28;19936;-34
2023/09/28 00:11:34;;;;;;;;;;;18.00;96.30;;;;;;12557470;28;20226;-35
2023/09/28 00:17:39;;;;;;;;;;;18.10;98.50;;;;;;12549136;28;19932;-35
2023/09/28 00:23:41;;;;;;;;;;;18.10;94.10;;;;;;12549042;28;20693;-35
2023/09/28 00:29:46;;;;;;;;;;;18.00;96.20;;;;;;12552977;28;20392;-35
2023/09/28 00:35:48;;;;;;;;;;;18.00;98.60;;;;;;12543496;28;19928;-35
2023/09/28 00:41:50;;;;;;;;;;;18.00;89.90;;;;;;12556403;28;20023;-35
2023/09/28 00:47:53;;;;;;;;;;;18.10;81.00;;;;;;12538297;28;20031;-34
2023/09/28 00:53:55;;;;;;;;;;;18.10;78.40;;;;;;12555172;28;19933;-35
2023/09/28 00:59:57;;;;;;;;;;;18.10;94.90;;;;;;12560256;28;19951;-34
2023/09/28 01:05:58;;;;;;;;;;;18.00;93.90;;;;;;12535819;28;20467;-35
2023/09/28 01:12:01;;;;;;;;;;;17.90;98.90;;;;;;12558565;28;19935;-35
2023/09/28 01:18:03;;;;;;;;;;;17.90;94.80;;;;;;12551841;28;20777;-35
2023/09/28 01:24:06;;;;;;;;;;;17.90;90.50;;;;;;12563586;28;20384;-34
2023/09/28 01:30:11;;;;;;;;;;;17.90;99.40;;;;;;12548967;28;20053;-35
2023/09/28 01:36:13;;;;;;;;;;;17.90;94.80;;;;;;12566991;28;19928;-34
2023/09/28 01:42:15;;;;;;;;;;;17.80;99.90;;;;;;12564474;28;19990;-35
2023/09/28 01:48:17;;;;;;;;;;;17.80;94.10;;;;;;12559000;28;19932;-35
2023/09/28 01:54:18;;;;;;;;;;;17.80;70.80;;;;;;12550337;28;20849;-35
2023/09/28 02:00:22;;;;;;;;;;;17.80;87.80;;;;;;12553240;28;20022;-35
2023/09/28 02:06:24;;;;;;;;;;;17.90;56.90;;;;;;12564476;28;19935;-35
2023/09/28 02:12:28;;;;;;;;;;;18.00;51.00;;;;;;12553633;28;20388;-34
2023/09/28 02:18:30;;;;;;;;;;;18.10;57.00;;;;;;12547293;28;20653;-36
2023/09/28 02:24:32;;;;;;;;;;;18.10;42.70;;;;;;12557965;28;19959;-35
2023/09/28 02:30:34;;;;;;;;;;;18.20;23.30;;;;;;12563625;28;20471;-35
2023/09/28 02:36:35;;;;;;;;;;;18.30;14.20;;;;;;12568011;28;20027;-35
2023/09/28 02:42:37;;;;;;;;;;;18.30;31.80;;;;;;12559774;28;20024;-34
2023/09/28 02:48:39;;;;;;;;;;;18.40;5.70;;;;;;12552155;28;19932;-35
2023/09/28 02:54:41;;;;;;;;;;;18.40;4.80;;;;;;12547151;28;19934;-35
2023/09/28 03:00:42;;;;;;;;;;;18.50;1.00;;;;;;12564749;28;19932;-35
2023/09/28 03:06:46;;;;;;;;;;;18.50;1.00;;;;;;12526894;28;20354;-35
2023/09/28 03:12:51;;;;;;;;;;;18.50;1.00;;;;;;12551048;28;19978;-35
2023/09/28 03:18:53;;;;;;;;;;;18.60;1.00;;;;;;12545393;28;19924;-35
2023/09/28 03:24:55;;;;;;;;;;;18.70;1.00;;;;;;12534152;28;19981;-35
2023/09/28 03:30:57;;;;;;;;;;;18.80;43.80;;;;;;12556525;28;20285;-35
2023/09/28 03:36:58;;;;;;;;;;;18.80;1.00;;;;;;12552310;28;19947;-35
2023/09/28 03:43:03;;;;;;;;;;;18.80;1.00;;;;;;12546539;28;19928;-34
2023/09/28 03:49:06;;;;;;;;;;;18.80;1.00;;;;;;12536331;28;19932;-35
2023/09/28 03:55:08;;;;;;;;;;;18.80;1.00;;;;;;12552604;28;19932;-35
2023/09/28 04:01:10;;;;;;;;;;;18.90;1.00;;;;;;12547270;28;19925;-35
2023/09/28 04:07:12;;;;;;;;;;;18.90;1.00;;;;;;12553335;28;19943;-34
2023/09/28 04:13:13;;;;;;;;;;;18.90;1.00;;;;;;12535026;28;19951;-35
2023/09/28 04:19:16;;;;;;;;;;;18.90;1.00;;;;;;12544335;28;20433;-35
2023/09/28 04:25:19;;;;;;;;;;;18.90;1.00;;;;;;12545975;28;20046;-35
2023/09/28 04:31:21;;;;;;;;;;;18.90;1.00;;;;;;12557201;28;20316;-35
2023/09/28 04:37:25;;;;;;;;;;;18.80;1.00;;;;;;12546839;28;19928;-34
2023/09/28 04:43:27;;;;;;;;;;;18.80;1.00;;;;;;12561775;28;20339;-35
2023/09/28 04:49:29;;;;;;;;;;;18.80;1.00;;;;;;12562662;28;19974;-35
2023/09/28 04:55:30;;;;;;;;;;;18.70;1.00;;;;;;12523617;28;19970;-34
2023/09/28 05:01:32;;;;;;;;;;;18.70;1.00;;;;;;12535427;28;20411;-35
2023/09/28 05:07:34;;;;;;;;;;;18.70;1.00;;;;;;12540110;28;19936;-35
2023/09/28 05:13:36;;;;;;;;;;;18.50;1.00;;;;;;12541948;28;19938;-35
2023/09/28 05:19:38;;;;;;;;;;;18.50;1.00;;;;;;12548786;28;19937;-35
2023/09/28 05:25:40;;;;;;;;;;;18.50;1.00;;;;;;12554378;28;19932;-34
2023/09/28 05:31:42;;;;;;;;;;;18.40;1.00;;;;;;12553959;28;19972;-35
2023/09/28 05:37:43;;;;;;;;;;;18.40;4.00;;;;;;12552972;28;19928;-34
2023/09/28 05:43:46;;;;;;;;;;;18.40;8.30;;;;;;12540024;28;19934;-35
2023/09/28 05:49:49;;;;;;;;;;;18.30;24.00;;;;;;12554637;28;20371;-34
2023/09/28 05:55:51;;;;;;;;;;;18.20;30.90;;;;;;12547178;28;19929;-34
2023/09/28 06:01:53;;;;;;;;;;;18.20;38.10;;;;;;12542648;28;19936;-35
2023/09/28 06:07:55;;;;;;;;;;;18.10;46.90;;;;;;12553043;28;19936;-34
2023/09/28 06:13:57;;;;;;;;;;;18.10;86.10;;;;;;12568103;28;20015;-34
2023/09/28 06:20:08;;;;;;;;;;;18.10;79.70;;;;;;12550022;28;19928;-35
2023/09/28 06:26:11;;;;;;;;;;;18.10;81.40;;;;;;12538965;28;19925;-35
2023/09/28 06:32:13;;;;;;;;;;;18.10;71.20;;;;;;12560557;28;19972;-35
2023/09/28 06:38:15;;;;;;;;;;;18.10;71.50;;;;;;12540557;28;19987;-35
2023/09/28 06:44:17;;;;;;;;;;;18.10;70.50;;;;;;12537504;28;19952;-35
2023/09/28 06:57:29;;;;;;;;;;;18.40;66.50;;;;;;12474414;23;21042;-34
2023/09/28 07:03:43;;;;;;;;;;;18.60;74.30;;;;;;12476002;28;19929;-35
2023/09/28 07:09:57;;;;;;;;;;;18.70;53.70;;;;;;12467187;28;19955;-35
2023/09/28 07:16:03;;;;;;;;;;;18.90;60.50;;;;;;12467844;28;19925;-35
2023/09/28 07:22:06;;;;;;;;;;;19.00;40.80;;;;;;12448565;28;19929;-35
2023/09/28 07:28:07;;;;;;;;;;;19.20;28.10;;;;;;12468713;28;19929;-35
2023/09/28 07:34:10;;;;;;;;;;;19.40;28.10;;;;;;12461338;28;20332;-34
2023/09/28 07:40:17;;;;;;;;;;;19.60;14.90;;;;;;12468109;28;19941;-35
2023/09/28 07:46:41;;;;;;;;;;;19.70;23.70;;;;;;12470661;28;20003;-35
2023/09/28 07:52:44;;;;;;;;;;;20.00;1.00;;;;;;12420084;28;19929;-35
2023/09/28 07:58:47;;;;;;;;;;;20.20;6.30;;;;;;12464498;28;19980;-35
2023/09/28 08:04:53;;;;;;;;;;;20.40;1.00;;;;;;12484648;28;20007;-35
2023/09/28 08:10:57;;;;;;;;;;;20.70;1.00;;;;;;12473362;28;19976;-35
2023/09/28 08:17:00;;;;;;;;;;;20.80;1.00;;;;;;12479959;28;20439;-35
2023/09/28 08:23:08;;;;;;;;;;;20.90;1.00;;;;;;12471620;28;19936;-35
2023/09/28 08:29:15;;;;;;;;;;;21.10;1.00;;;;;;12481144;28;19940;-35
2023/09/28 08:35:17;;;;;;;;;;;21.20;1.00;;;;;;12470810;28;19926;-35
2023/09/28 08:41:39;;;;;;;;;;;21.30;1.00;;;;;;12474133;28;19929;-35
2023/09/28 08:47:52;;;;;;;;;;;21.50;1.00;;;;;;12464328;28;19929;-35
2023/09/28 08:54:11;;;;;;;;;;;21.50;1.00;;;;;;12474778;28;19929;-35
2023/09/28 09:00:25;;;;;;;;;;;21.40;1.00;;;;;;12456256;28;19987;-35
2023/09/28 09:06:41;;;;;;;;;;;21.40;1.00;;;;;;12453298;28;19930;-35
2023/09/28 09:12:52;;;;;;;;;;;21.40;1.00;;;;;;12463188;28;20012;-36
2023/09/28 09:19:04;;;;;;;;;;;21.80;1.00;;;;;;12470127;28;20036;-35
2023/09/28 09:25:17;;;;;;;;;;;22.00;1.00;;;;;;12474767;28;19925;-35
2023/09/28 09:31:33;;;;;;;;;;;22.20;1.00;;;;;;12484007;28;19929;-34
2023/09/28 09:37:57;;;;;;;;;;;22.10;1.00;;;;;;12486297;28;20308;-35
2023/09/28 09:44:21;;;;;;;;;;;22.00;1.00;;;;;;12491976;28;20437;-35
2023/09/28 09:50:41;;;;;;;;;;;21.80;1.00;;;;;;12457474;28;19948;-35
2023/09/28 09:57:23;;;;;;;;;;;21.50;1.00;;;;;;12435987;28;20431;-35
2023/09/28 10:03:59;;;;;;;;;;;21.30;23.50;;;;;;12446443;28;19925;-35
2023/09/28 10:10:27;;;;;;;;;;;21.70;12.20;;;;;;12435700;28;19929;-35
2023/09/28 10:16:47;;;;;;;;;;;21.70;1.00;;;;;;12452113;28;19925;-35
2023/09/28 10:23:19;;;;;;;;;;;21.20;31.40;;;;;;12452727;28;19926;-35
2023/09/28 10:29:41;;;;;;;;;;;20.90;46.60;;;;;;12448768;28;20023;-34
2023/09/28 10:36:19;;;;;;;;;;;20.80;90.90;;;;;;12446400;28;20295;-35
2023/09/28 10:42:37;;;;;;;;;;;20.80;72.30;;;;;;12427910;28;19925;-35
2023/09/28 10:49:00;;;;;;;;;;;21.00;89.00;;;;;;12451826;28;19977;-35
2023/09/28 10:55:18;;;;;;;;;;;21.30;39.70;;;;;;12447468;28;19929;-35
2023/09/28 11:01:33;;;;;;;;;;;21.50;1.80;;;;;;12438971;28;19952;-35
2023/09/28 11:07:51;;;;;;;;;;;21.60;28.50;;;;;;12432742;28;19926;-35
2023/09/28 11:14:14;;;;;;;;;;;21.60;16.90;;;;;;12436963;28;19927;-35
2023/09/28 11:20:30;;;;;;;;;;;21.40;24.40;;;;;;12427427;28;20008;-35
2023/09/28 11:26:45;;;;;;;;;;;22.10;31.50;;;;;;12434180;28;20304;-35
2023/09/28 11:33:07;;;;;;;;;;;22.60;1.00;;;;;;12422132;28;19926;-35
2023/09/28 11:39:21;;;;;;;;;;;22.50;1.00;;;;;;12438202;28;19930;-35
2023/09/28 11:45:37;;;;;;;;;;;22.70;1.00;;;;;;12447957;28;20020;-35
2023/09/28 11:51:53;;;;;;;;;;;22.60;1.00;;;;;;12440399;28;19926;-35
2023/09/28 11:58:12;;;;;;;;;;;22.40;1.00;;;;;;12468134;28;19932;-35
2023/09/28 12:04:30;;;;;;;;;;;22.80;1.00;;;;;;12475737;28;19925;-35
2023/09/28 12:10:51;;;;;;;;;;;22.70;1.00;;;;;;12449595;28;20382;-35
2023/09/28 12:17:06;;;;;;;;;;;22.10;1.00;;;;;;12467082;28;19929;-35
2023/09/28 12:23:25;;;;;;;;;;;21.70;1.00;;;;;;12469487;28;19980;-35
2023/09/28 12:29:44;;;;;;;;;;;21.90;6.00;;;;;;12481103;28;20308;-35
2023/09/28 12:36:08;;;;;;;;;;;22.40;1.00;;;;;;12474419;28;20024;-35
2023/09/28 12:42:29;;;;;;;;;;;22.60;1.00;;;;;;12492433;28;19929;-34
2023/09/28 12:48:49;;;;;;;;;;;22.40;1.00;;;;;;12490647;28;19929;-35
2023/09/28 12:55:03;;;;;;;;;;;22.70;1.00;;;;;;12474892;28;19926;-35
2023/09/28 13:01:10;;;;;;;;;;;23.00;1.00;;;;;;12425916;28;19925;-35
2023/09/28 13:07:24;;;;;;;;;;;23.10;1.00;;;;;;12424177;28;19976;-35
2023/09/28 13:13:44;;;;;;;;;;;23.00;1.00;;;;;;12421846;28;19929;-35
2023/09/28 13:19:53;;;;;;;;;;;22.90;1.00;;;;;;12433798;28;20336;-35
2023/09/28 13:26:13;;;;;;;;;;;22.80;1.00;;;;;;12423525;28;20833;-35
2023/09/28 13:32:27;;;;;;;;;;;22.80;1.00;;;;;;12439550;28;20297;-35
2023/09/28 13:38:52;;;;;;;;;;;22.90;1.00;;;;;;12435563;28;19930;-35
2023/09/28 13:45:09;;;;;;;;;;;22.90;1.00;;;;;;12431923;28;19984;-35
2023/09/28 13:51:16;;;;;;;;;;;22.80;1.00;;;;;;12436949;28;19930;-35
2023/09/28 13:57:39;;;;;;;;;;;22.60;1.00;;;;;;12441343;28;19945;-35
2023/09/28 14:03:53;;;;;;;;;;;22.50;1.00;;;;;;12449422;28;20290;-34
2023/09/28 14:10:03;;;;;;;;;;;22.20;1.00;;;;;;12447578;28;19929;-34
2023/09/28 14:16:16;;;;;;;;;;;22.10;1.00;;;;;;12453259;28;19983;-36
2023/09/28 14:22:28;;;;;;;;;;;22.10;42.40;;;;;;12449665;28;19930;-36
2023/09/28 14:28:41;;;;;;;;;;;22.20;1.00;;;;;;12447359;28;20330;-33
2023/09/28 14:34:55;;;;;;;;;;;22.10;1.00;;;;;;12443553;28;19925;-37
2023/09/28 14:41:18;;;;;;;;;;;22.00;1.00;;;;;;12443248;28;19980;-36
2023/09/28 14:47:45;;;;;;;;;;;21.80;1.00;;;;;;12439176;28;19937;-34
2023/09/28 14:53:59;;;;;;;;;;;21.80;1.00;;;;;;12452060;28;20027;-34
2023/09/28 15:00:27;;;;;;;;;;;21.80;1.00;;;;;;12480464;28;20399;-34
2023/09/28 15:06:52;;;;;;;;;;;21.60;1.00;;;;;;12470925;28;19925;-34
2023/09/28 15:13:19;;;;;;;;;;;21.60;12.40;;;;;;12481967;28;19926;-34
2023/09/28 15:19:36;;;;;;;;;;;21.60;1.00;;;;;;12476078;28;19940;-34
2023/09/28 15:25:49;;;;;;;;;;;21.50;9.30;;;;;;12480054;28;20385;-35
2023/09/28 15:32:09;;;;;;;;;;;21.60;1.00;;;;;;12485583;28;19926;-35
2023/09/28 15:38:25;;;;;;;;;;;21.50;8.10;;;;;;12462838;28;19925;-35
2023/09/28 15:44:40;;;;;;;;;;;21.40;1.00;;;;;;12485250;28;19925;-34
2023/09/28 15:50:45;;;;;;;;;;;21.30;22.70;;;;;;12476326;28;19936;-35
2023/09/28 15:56:52;;;;;;;;;;;21.20;15.50;;;;;;12462342;28;19925;-35
2023/09/28 16:03:09;;;;;;;;;;;21.00;35.30;;;;;;12447065;28;20547;-34
2023/09/28 16:09:31;;;;;;;;;;;20.80;39.20;;;;;;12439900;28;19936;-35
2023/09/28 16:15:52;;;;;;;;;;;20.80;94.70;;;;;;12421715;28;20451;-35
2023/09/28 16:21:55;;;;;;;;;;;20.80;99.90;;;;;;12428900;28;20415;-35
2023/09/28 16:28:03;;;;;;;;;;;20.70;99.90;;;;;;12436055;28;19929;-35
2023/09/28 16:34:12;;;;;;;;;;;20.70;68.90;;;;;;12426741;28;19940;-34
2023/09/28 16:40:27;;;;;;;;;;;20.60;99.90;;;;;;12443400;28;19979;-33
2023/09/28 16:46:44;;;;;;;;;;;20.70;99.90;;;;;;12441714;28;19972;-34
2023/09/28 16:52:58;;;;;;;;;;;20.40;95.30;;;;;;12423627;28;19949;-33
2023/09/28 16:59:17;;;;;;;;;;;20.20;99.90;;;;;;12433335;28;20068;-35
2023/09/28 17:05:43;;;;;;;;;;;20.30;99.90;;;;;;12442740;28;19976;-34
2023/09/28 17:11:59;;;;;;;;;;;20.30;99.90;;;;;;12448375;28;19983;-34
2023/09/28 17:18:03;;;;;;;;;;;20.10;99.90;;;;;;12434358;28;19930;-35
2023/09/28 17:24:26;;;;;;;;;;;20.00;99.90;;;;;;12455351;28;19932;-34
2023/09/28 17:30:49;;;;;;;;;;;19.90;99.90;;;;;;12453237;28;20041;-33
2023/09/28 17:37:13;;;;;;;;;;;19.80;99.90;;;;;;12455971;28;19925;-32
2023/09/28 17:43:35;;;;;;;;;;;19.60;99.90;;;;;;12453323;28;19976;-34
2023/09/28 17:49:40;;;;;;;;;;;19.30;99.90;;;;;;12435035;28;20385;-33
2023/09/28 17:55:42;;;;;;;;;;;18.90;99.90;;;;;;12446394;28;20419;-34
2023/09/28 18:01:44;;;;;;;;;;;18.90;99.90;;;;;;12478433;28;19937;-34
2023/09/28 18:07:46;;;;;;;;;;;18.90;99.90;;;;;;12456363;28;20579;-34
2023/09/28 18:13:49;;;;;;;;;;;19.00;99.90;;;;;;12467781;28;19933;-33
2023/09/28 18:20:03;;;;;;;;;;;18.80;99.90;;;;;;12485878;28;19995;-34
2023/09/28 18:26:47;;;;;;;;;;;18.60;99.90;;;;;;12500669;28;19925;-32
2023/09/28 18:33:18;;;;;;;;;;;18.60;99.90;;;;;;12492867;28;19925;-34
2023/09/28 18:39:40;;;;;;;;;;;18.50;99.90;;;;;;12493950;28;19929;-35
2023/09/28 18:46:01;;;;;;;;;;;18.20;99.90;;;;;;12493083;28;19972;-33
2023/09/28 18:52:12;;;;;;;;;;;18.20;99.90;;;;;;12476995;28;19968;-34
2023/09/28 18:58:14;;;;;;;;;;;18.10;99.90;;;;;;12476583;28;19944;-34
2023/09/28 19:04:30;;;;;;;;;;;17.90;99.90;;;;;;12490248;28;20047;-34
2023/09/28 19:10:40;;;;;;;;;;;17.90;99.90;;;;;;12452807;28;20527;-36
2023/09/28 19:16:43;;;;;;;;;;;18.10;99.90;;;;;;12472380;28;19952;-36
2023/09/28 19:22:54;;;;;;;;;;;17.80;99.90;;;;;;12463552;28;19929;-36
2023/09/28 19:29:03;;;;;;;;;;;17.60;99.90;;;;;;12428997;28;19979;-36
2023/09/28 19:35:05;;;;;;;;;;;17.80;99.90;;;;;;12456535;28;19936;-35
2023/09/28 19:41:07;;;;;;;;;;;17.80;99.90;;;;;;12460668;28;20372;-36
2023/09/28 19:47:09;;;;;;;;;;;17.90;99.90;;;;;;12463341;28;20306;-36
2023/09/28 19:53:11;;;;;;;;;;;17.90;99.90;;;;;;12469650;28;20024;-35
2023/09/28 19:59:13;;;;;;;;;;;17.90;99.90;;;;;;12427880;28;19956;-36
2023/09/28 20:05:16;;;;;;;;;;;17.90;99.90;;;;;;12419445;28;19929;-36
2023/09/28 20:11:18;;;;;;;;;;;17.90;99.90;;;;;;12426671;28;19948;-36
2023/09/28 20:17:20;;;;;;;;;;;17.70;99.90;;;;;;12427732;28;19933;-36
2023/09/28 20:23:22;;;;;;;;;;;17.60;99.90;;;;;;12424566;28;20377;-35
2023/09/28 20:29:25;;;;;;;;;;;17.50;99.90;;;;;;12414389;28;19968;-36
2023/09/28 20:35:28;;;;;;;;;;;17.40;99.90;;;;;;12404737;28;20468;-36
2023/09/28 20:41:32;;;;;;;;;;;17.50;99.90;;;;;;12411193;28;19937;-35
2023/09/28 20:47:35;;;;;;;;;;;17.40;99.90;;;;;;12424834;28;20297;-36
2023/09/28 20:53:42;;;;;;;;;;;17.30;99.90;;;;;;12415873;28;19929;-35
2023/09/28 20:59:50;;;;;;;;;;;17.30;99.90;;;;;;12480540;28;19972;-36
2023/09/28 21:06:04;;;;;;;;;;;17.40;99.90;;;;;;12480270;28;19929;-36
2023/09/28 21:12:32;;;;;;;;;;;17.40;99.90;;;;;;12487238;28;19925;-36
2023/09/28 21:18:59;;;;;;;;;;;17.70;99.90;;;;;;12494801;28;19936;-35
2023/09/28 21:25:31;;;;;;;;;;;17.60;99.90;;;;;;12492084;28;19925;-35
2023/09/28 21:31:42;;;;;;;;;;;17.70;99.90;;;;;;12483811;28;20394;-36
2023/09/28 21:37:44;;;;;;;;;;;17.70;99.90;;;;;;12465188;28;19955;-36
2023/09/28 21:43:55;;;;;;;;;;;17.80;99.90;;;;;;12475675;28;20273;-36
2023/09/28 21:50:20;;;;;;;;;;;17.90;99.90;;;;;;12480711;28;19933;-36
2023/09/28 21:56:51;;;;;;;;;;;17.40;99.90;;;;;;12475570;28;19930;-35
2023/09/28 22:03:40;;;;;;;;;;;17.60;99.90;;;;;;11921764;27;20864726;-34
2023/09/28 22:10:07;;;;;;;;;;;17.40;99.90;;;;;;12613389;28;19932;-33
2023/09/28 22:16:34;;;;;;;;;;;17.50;99.90;;;;;;12610258;28;20019;-33
2023/09/28 22:23:08;;;;;;;;;;;17.40;99.90;;;;;;12623001;28;20429;-34
2023/09/28 22:29:36;;;;;;;;;;;17.40;99.90;;;;;;12612180;28;19975;-34
2023/09/28 22:36:06;;;;;;;;;;;17.30;99.90;;;;;;12610670;28;19931;-34
2023/09/28 22:42:35;;;;;;;;;;;17.20;99.90;;;;;;12615394;28;20039;-34
2023/09/28 22:49:03;;;;;;;;;;;17.30;99.90;;;;;;12613174;28;20006;-34
2023/09/28 22:55:27;;;;;;;;;;;17.30;99.90;;;;;;12619547;28;20341;-34
2023/09/28 23:01:54;;;;;;;;;;;17.10;99.90;;;;;;12618855;28;19951;-34
2023/09/28 23:08:20;;;;;;;;;;;16.80;99.90;;;;;;12596521;28;20269;-34
2023/09/28 23:14:45;;;;;;;;;;;17.00;99.90;;;;;;12560609;28;20005;-35
2023/09/28 23:21:05;;;;;;;;;;;16.90;99.90;;;;;;12553233;28;19974;-34
2023/09/28 23:27:17;;;;;;;;;;;16.80;99.90;;;;;;12576190;28;19968;-34
2023/09/28 23:33:28;;;;;;;;;;;16.70;99.90;;;;;;12569527;28;20296;-34
2023/09/28 23:39:50;;;;;;;;;;;16.30;99.90;;;;;;12573679;28;19928;-34
2023/09/28 23:46:06;;;;;;;;;;;16.40;99.90;;;;;;12572821;28;20353;-34
2023/09/28 23:52:08;;;;;;;;;;;16.50;99.90;;;;;;12563435;28;19966;-34
2023/09/28 23:58:13;;;;;;;;;;;16.50;99.90;;;;;;12542066;28;19943;-34
